This is the latest recevied weather packets stored in our database for station/object KT5AL. If no packets are shown the sender has not sent any weather packets the latest 1 day(s).
| Time | Temp. | Humidity | Pressure | Rain* | Wind** | Luminosity | Snow |
|---|---|---|---|---|---|---|---|
| 1778012408 | 28.89° C | 47% | 1001.2 hPa | 0 mm | 9.39 m/s, 292° | - | - |
| 1778012107 | 29.44° C | 47% | 1001.6 hPa | 0 mm | 5.81 m/s, 247° | - | - |
| 1778011804 | 29.44° C | 46% | 1001.6 hPa | 0 mm | 5.36 m/s, 247° | - | - |
| 1778011507 | 28.89° C | 47% | 1001.2 hPa | 0 mm | 6.26 m/s, 270° | - | - |
| 1778011204 | 29.44° C | 47% | 1001.2 hPa | 0 mm | 6.26 m/s, 247° | - | - |
| 1778010908 | 29.44° C | 52% | 1001.2 hPa | 0 mm | 4.47 m/s, 225° | - | - |
| 1778010605 | 29.44° C | 56% | 1001.2 hPa | 0 mm | 5.36 m/s, 202° | - | - |
| 1778010308 | 29.44° C | 58% | 1001.6 hPa | 0 mm | 4.92 m/s, 225° | - | - |
| 1778010004 | 28.89° C | 62% | 1001.6 hPa | 0 mm | 6.71 m/s, 247° | - | - |
| 1778009733 | 28.89° C | 62% | 1001.6 hPa | 0 mm | 4.92 m/s, 202° | - | - |
| 1778009403 | 28.89° C | 62% | 1001.6 hPa | 0 mm | 4.92 m/s, 202° | - | - |
| 1778009106 | 29.44° C | 61% | 1001.2 hPa | 0 mm | 4.92 m/s, 202° | - | - |
| 1778008809 | 29.44° C | 63% | 1001.2 hPa | 0 mm | 4.92 m/s, 202° | - | - |
| 1778008505 | 28.89° C | 61% | 1001.6 hPa | 0 mm | 7.15 m/s, 202° | - | - |
| 1778008202 | 29.44° C | 61% | 1001.6 hPa | 0 mm | 7.15 m/s, 202° | - | - |
| 1778007906 | 28.89° C | 61% | 1001.6 hPa | 0 mm | 6.71 m/s, 202° | - | - |
| 1778007608 | 28.89° C | 61% | 1001.6 hPa | 0 mm | 7.15 m/s, 202° | - | - |
| 1778007305 | 28.33° C | 60% | 1001.6 hPa | 0 mm | 8.05 m/s, 202° | - | - |
| 1778007006 | 28.33° C | 59% | 1001.6 hPa | 0 mm | 7.15 m/s, 202° | - | - |
| 1778006702 | 28.33° C | 61% | 1001.6 hPa | 0 mm | 6.26 m/s, 202° | - | - |
| 1778006405 | 28.33° C | 58% | 1001.6 hPa | 0 mm | 7.15 m/s, 202° | - | - |
| 1778006107 | 28.33° C | 59% | 1001.6 hPa | 0 mm | 6.26 m/s, 202° | - | - |
| 1778005805 | 28.33° C | 59% | 1001.6 hPa | 0 mm | 7.15 m/s, 202° | - | - |
| 1778005507 | 28.33° C | 64% | 1001.6 hPa | 0 mm | 5.81 m/s, 202° | - | - |
| 1778005204 | 28.33° C | 65% | 1001.6 hPa | 0 mm | 5.36 m/s, 180° | - | - |
* Rain latest hour (hover to see other rain measurements)
** Current wind speed in m/s (hover to see current wind gust speed)